sensor_id;sensor_type;location;lat;lon;timestamp;temperature;humidity
23156;DHT22;11746;50.876;4.246;2023-12-22T00:00:54;10.20;99.90
23156;DHT22;11746;50.876;4.246;2023-12-22T00:03:20;10.10;99.90
23156;DHT22;11746;50.876;4.246;2023-12-22T00:05:46;10.10;99.90
23156;DHT22;11746;50.876;4.246;2023-12-22T00:08:13;10.20;99.90
23156;DHT22;11746;50.876;4.246;2023-12-22T00:10:41;10.20;99.90
23156;DHT22;11746;50.876;4.246;2023-12-22T00:13:09;10.20;99.90
23156;DHT22;11746;50.876;4.246;2023-12-22T00:15:35;10.20;99.90
23156;DHT22;11746;50.876;4.246;2023-12-22T00:18:03;10.10;99.90
23156;DHT22;11746;50.876;4.246;2023-12-22T00:20:28;10.10;99.90
23156;DHT22;11746;50.876;4.246;2023-12-22T00:22:56;9.90;99.90
23156;DHT22;11746;50.876;4.246;2023-12-22T00:25:22;9.60;99.90
23156;DHT22;11746;50.876;4.246;2023-12-22T00:27:48;9.40;99.90
23156;DHT22;11746;50.876;4.246;2023-12-22T00:30:13;9.20;99.90
23156;DHT22;11746;50.876;4.246;2023-12-22T00:32:39;9.20;99.90
23156;DHT22;11746;50.876;4.246;2023-12-22T00:35:05;9.20;99.90
23156;DHT22;11746;50.876;4.246;2023-12-22T00:37:33;9.10;99.90
23156;DHT22;11746;50.876;4.246;2023-12-22T00:39:59;9.10;99.90
23156;DHT22;11746;50.876;4.246;2023-12-22T00:42:26;9.00;99.90
23156;DHT22;11746;50.876;4.246;2023-12-22T00:44:52;9.00;99.90
23156;DHT22;11746;50.876;4.246;2023-12-22T00:47:20;9.00;99.90
23156;DHT22;11746;50.876;4.246;2023-12-22T00:49:48;8.90;99.90
23156;DHT22;11746;50.876;4.246;2023-12-22T00:52:14;8.90;99.90
23156;DHT22;11746;50.876;4.246;2023-12-22T00:54:42;8.90;99.90
23156;DHT22;11746;50.876;4.246;2023-12-22T00:57:07;8.90;99.90
23156;DHT22;11746;50.876;4.246;2023-12-22T00:59:36;9.00;99.90
23156;DHT22;11746;50.876;4.246;2023-12-22T01:02:04;9.00;99.90
23156;DHT22;11746;50.876;4.246;2023-12-22T01:04:30;9.10;99.90
23156;DHT22;11746;50.876;4.246;2023-12-22T01:06:55;9.20;99.90
23156;DHT22;11746;50.876;4.246;2023-12-22T01:09:25;9.20;99.90
23156;DHT22;11746;50.876;4.246;2023-12-22T01:11:51;9.30;99.90
23156;DHT22;11746;50.876;4.246;2023-12-22T01:14:17;9.30;99.90
23156;DHT22;11746;50.876;4.246;2023-12-22T01:16:47;9.40;99.90
23156;DHT22;11746;50.876;4.246;2023-12-22T01:19:13;9.40;99.90
23156;DHT22;11746;50.876;4.246;2023-12-22T01:21:38;9.50;99.90
23156;DHT22;11746;50.876;4.246;2023-12-22T01:24:04;9.50;99.90
23156;DHT22;11746;50.876;4.246;2023-12-22T01:26:32;9.60;99.90
23156;DHT22;11746;50.876;4.246;2023-12-22T01:28:58;9.60;99.90
23156;DHT22;11746;50.876;4.246;2023-12-22T01:31:23;9.60;99.90
23156;DHT22;11746;50.876;4.246;2023-12-22T01:33:51;9.60;99.90
23156;DHT22;11746;50.876;4.246;2023-12-22T01:36:19;9.60;99.90
23156;DHT22;11746;50.876;4.246;2023-12-22T01:38:47;9.50;99.90
23156;DHT22;11746;50.876;4.246;2023-12-22T01:41:15;9.50;99.90
23156;DHT22;11746;50.876;4.246;2023-12-22T01:43:43;9.50;99.90
23156;DHT22;11746;50.876;4.246;2023-12-22T01:46:10;9.50;99.90
23156;DHT22;11746;50.876;4.246;2023-12-22T01:48:39;9.50;99.90
23156;DHT22;11746;50.876;4.246;2023-12-22T01:51:06;9.50;99.90
23156;DHT22;11746;50.876;4.246;2023-12-22T01:53:35;9.50;99.90
23156;DHT22;11746;50.876;4.246;2023-12-22T01:56:02;9.50;99.90
23156;DHT22;11746;50.876;4.246;2023-12-22T01:58:32;9.40;99.90
23156;DHT22;11746;50.876;4.246;2023-12-22T02:00:58;9.40;99.90
23156;DHT22;11746;50.876;4.246;2023-12-22T02:03:27;9.40;99.90
23156;DHT22;11746;50.876;4.246;2023-12-22T02:05:55;9.40;99.90
23156;DHT22;11746;50.876;4.246;2023-12-22T02:08:26;9.30;99.90
23156;DHT22;11746;50.876;4.246;2023-12-22T02:10:53;9.30;99.90
23156;DHT22;11746;50.876;4.246;2023-12-22T02:13:18;9.30;99.90
23156;DHT22;11746;50.876;4.246;2023-12-22T02:15:49;9.30;99.90
23156;DHT22;11746;50.876;4.246;2023-12-22T02:18:23;9.40;99.90
23156;DHT22;11746;50.876;4.246;2023-12-22T02:20:53;9.40;99.90
23156;DHT22;11746;50.876;4.246;2023-12-22T02:23:18;9.40;99.90
23156;DHT22;11746;50.876;4.246;2023-12-22T02:25:46;9.40;99.90
23156;DHT22;11746;50.876;4.246;2023-12-22T02:28:17;9.40;99.90
23156;DHT22;11746;50.876;4.246;2023-12-22T02:31:09;9.50;99.90
23156;DHT22;11746;50.876;4.246;2023-12-22T02:33:41;9.50;99.90
23156;DHT22;11746;50.876;4.246;2023-12-22T02:36:11;9.50;99.90
23156;DHT22;11746;50.876;4.246;2023-12-22T02:38:39;9.60;99.90
23156;DHT22;11746;50.876;4.246;2023-12-22T02:41:07;9.50;99.90
23156;DHT22;11746;50.876;4.246;2023-12-22T02:43:33;9.50;99.90
23156;DHT22;11746;50.876;4.246;2023-12-22T02:45:59;9.50;99.90
23156;DHT22;11746;50.876;4.246;2023-12-22T02:48:24;9.50;99.90
23156;DHT22;11746;50.876;4.246;2023-12-22T02:50:51;9.50;99.90
23156;DHT22;11746;50.876;4.246;2023-12-22T02:53:16;9.50;99.90
23156;DHT22;11746;50.876;4.246;2023-12-22T02:55:42;9.50;99.90
23156;DHT22;11746;50.876;4.246;2023-12-22T02:58:07;9.50;99.90
23156;DHT22;11746;50.876;4.246;2023-12-22T03:00:33;9.50;99.90
23156;DHT22;11746;50.876;4.246;2023-12-22T03:03:01;9.50;99.90
23156;DHT22;11746;50.876;4.246;2023-12-22T03:05:27;9.50;99.90
23156;DHT22;11746;50.876;4.246;2023-12-22T03:07:52;9.50;99.90
23156;DHT22;11746;50.876;4.246;2023-12-22T03:10:18;9.50;99.90
23156;DHT22;11746;50.876;4.246;2023-12-22T03:12:44;9.40;99.90
23156;DHT22;11746;50.876;4.246;2023-12-22T03:15:11;9.30;99.90
23156;DHT22;11746;50.876;4.246;2023-12-22T03:17:40;9.30;99.90
23156;DHT22;11746;50.876;4.246;2023-12-22T03:20:06;9.20;99.90
23156;DHT22;11746;50.876;4.246;2023-12-22T03:22:33;9.20;99.90
23156;DHT22;11746;50.876;4.246;2023-12-22T03:24:59;9.10;99.90
23156;DHT22;11746;50.876;4.246;2023-12-22T03:27:27;9.10;99.90
23156;DHT22;11746;50.876;4.246;2023-12-22T03:29:53;9.00;99.90
23156;DHT22;11746;50.876;4.246;2023-12-22T03:32:21;9.00;99.90
23156;DHT22;11746;50.876;4.246;2023-12-22T03:34:47;9.00;99.90
23156;DHT22;11746;50.876;4.246;2023-12-22T03:37:12;9.00;99.90
23156;DHT22;11746;50.876;4.246;2023-12-22T03:39:38;8.90;99.90
23156;DHT22;11746;50.876;4.246;2023-12-22T03:42:06;8.90;99.90
23156;DHT22;11746;50.876;4.246;2023-12-22T03:44:31;8.90;99.90
23156;DHT22;11746;50.876;4.246;2023-12-22T03:46:57;8.90;99.90
23156;DHT22;11746;50.876;4.246;2023-12-22T03:49:25;8.90;99.90
23156;DHT22;11746;50.876;4.246;2023-12-22T03:51:51;8.80;99.90
23156;DHT22;11746;50.876;4.246;2023-12-22T03:54:16;8.80;99.90
23156;DHT22;11746;50.876;4.246;2023-12-22T03:56:43;8.80;99.90
23156;DHT22;11746;50.876;4.246;2023-12-22T03:59:08;8.80;99.90
23156;DHT22;11746;50.876;4.246;2023-12-22T04:01:34;8.70;99.90
23156;DHT22;11746;50.876;4.246;2023-12-22T04:04:04;8.70;99.90
23156;DHT22;11746;50.876;4.246;2023-12-22T04:06:30;8.60;99.90
23156;DHT22;11746;50.876;4.246;2023-12-22T04:08:55;8.60;99.90
23156;DHT22;11746;50.876;4.246;2023-12-22T04:11:21;8.50;99.90
23156;DHT22;11746;50.876;4.246;2023-12-22T04:13:46;8.50;99.90
23156;DHT22;11746;50.876;4.246;2023-12-22T04:16:14;8.60;99.90
23156;DHT22;11746;50.876;4.246;2023-12-22T04:18:42;8.60;99.90
23156;DHT22;11746;50.876;4.246;2023-12-22T04:21:10;8.60;99.90
23156;DHT22;11746;50.876;4.246;2023-12-22T04:23:36;8.60;99.90
23156;DHT22;11746;50.876;4.246;2023-12-22T04:26:04;8.50;99.90
23156;DHT22;11746;50.876;4.246;2023-12-22T04:28:34;8.40;99.90
23156;DHT22;11746;50.876;4.246;2023-12-22T04:31:00;8.40;99.90
23156;DHT22;11746;50.876;4.246;2023-12-22T04:33:25;8.50;99.90
23156;DHT22;11746;50.876;4.246;2023-12-22T04:35:51;8.40;99.90
23156;DHT22;11746;50.876;4.246;2023-12-22T04:38:17;8.40;99.90
23156;DHT22;11746;50.876;4.246;2023-12-22T04:40:43;8.40;99.90
23156;DHT22;11746;50.876;4.246;2023-12-22T04:43:10;8.30;99.90
23156;DHT22;11746;50.876;4.246;2023-12-22T04:45:38;8.30;99.90
23156;DHT22;11746;50.876;4.246;2023-12-22T04:48:06;8.30;99.90
23156;DHT22;11746;50.876;4.246;2023-12-22T04:50:36;8.30;99.90
23156;DHT22;11746;50.876;4.246;2023-12-22T04:53:02;8.30;99.90
23156;DHT22;11746;50.876;4.246;2023-12-22T04:55:30;8.40;99.90
23156;DHT22;11746;50.876;4.246;2023-12-22T04:57:55;8.40;99.90
23156;DHT22;11746;50.876;4.246;2023-12-22T05:00:21;8.50;99.90
23156;DHT22;11746;50.876;4.246;2023-12-22T05:02:52;8.50;99.90
23156;DHT22;11746;50.876;4.246;2023-12-22T05:05:19;8.60;99.90
23156;DHT22;11746;50.876;4.246;2023-12-22T05:07:45;8.60;99.90
23156;DHT22;11746;50.876;4.246;2023-12-22T05:10:11;8.70;99.90
23156;DHT22;11746;50.876;4.246;2023-12-22T05:12:38;8.80;99.90
23156;DHT22;11746;50.876;4.246;2023-12-22T05:15:04;8.90;99.90
23156;DHT22;11746;50.876;4.246;2023-12-22T05:17:32;9.00;99.90
23156;DHT22;11746;50.876;4.246;2023-12-22T05:19:58;9.00;99.90
23156;DHT22;11746;50.876;4.246;2023-12-22T05:22:26;9.00;99.90
23156;DHT22;11746;50.876;4.246;2023-12-22T05:24:51;9.10;99.90
23156;DHT22;11746;50.876;4.246;2023-12-22T05:27:18;9.10;99.90
23156;DHT22;11746;50.876;4.246;2023-12-22T05:29:46;9.10;99.90
23156;DHT22;11746;50.876;4.246;2023-12-22T05:32:12;9.20;99.90
23156;DHT22;11746;50.876;4.246;2023-12-22T05:34:38;9.20;99.90
23156;DHT22;11746;50.876;4.246;2023-12-22T05:37:04;9.30;99.90
23156;DHT22;11746;50.876;4.246;2023-12-22T05:39:31;9.30;99.90
23156;DHT22;11746;50.876;4.246;2023-12-22T05:41:57;9.30;99.90
23156;DHT22;11746;50.876;4.246;2023-12-22T05:44:23;9.30;99.90
23156;DHT22;11746;50.876;4.246;2023-12-22T05:46:49;9.30;99.90
23156;DHT22;11746;50.876;4.246;2023-12-22T05:49:20;9.30;99.90
23156;DHT22;11746;50.876;4.246;2023-12-22T05:51:46;9.30;99.90
23156;DHT22;11746;50.876;4.246;2023-12-22T05:54:16;9.40;99.90
23156;DHT22;11746;50.876;4.246;2023-12-22T05:56:47;9.40;99.90
23156;DHT22;11746;50.876;4.246;2023-12-22T05:59:13;9.30;99.90
23156;DHT22;11746;50.876;4.246;2023-12-22T06:01:39;9.40;99.90
23156;DHT22;11746;50.876;4.246;2023-12-22T06:04:09;9.30;99.90
23156;DHT22;11746;50.876;4.246;2023-12-22T06:06:36;9.40;99.90
23156;DHT22;11746;50.876;4.246;2023-12-22T06:09:03;9.30;99.90
23156;DHT22;11746;50.876;4.246;2023-12-22T06:11:29;9.40;99.90
23156;DHT22;11746;50.876;4.246;2023-12-22T06:13:55;9.30;99.90
23156;DHT22;11746;50.876;4.246;2023-12-22T06:16:20;9.40;99.90
23156;DHT22;11746;50.876;4.246;2023-12-22T06:18:46;9.30;99.90
23156;DHT22;11746;50.876;4.246;2023-12-22T06:21:11;9.40;99.90
23156;DHT22;11746;50.876;4.246;2023-12-22T06:23:37;9.40;99.90
23156;DHT22;11746;50.876;4.246;2023-12-22T06:26:12;9.40;99.90
23156;DHT22;11746;50.876;4.246;2023-12-22T06:28:40;9.40;99.90
23156;DHT22;11746;50.876;4.246;2023-12-22T06:31:06;9.40;99.90
23156;DHT22;11746;50.876;4.246;2023-12-22T06:33:34;9.50;99.90
23156;DHT22;11746;50.876;4.246;2023-12-22T06:36:02;9.50;99.90
23156;DHT22;11746;50.876;4.246;2023-12-22T06:38:28;9.40;99.90
23156;DHT22;11746;50.876;4.246;2023-12-22T06:40:53;9.40;99.90
23156;DHT22;11746;50.876;4.246;2023-12-22T06:43:24;9.40;99.90
23156;DHT22;11746;50.876;4.246;2023-12-22T06:45:50;9.40;99.90
23156;DHT22;11746;50.876;4.246;2023-12-22T06:48:19;9.40;99.90
23156;DHT22;11746;50.876;4.246;2023-12-22T06:50:50;9.40;99.90
23156;DHT22;11746;50.876;4.246;2023-12-22T06:53:15;9.40;99.90
23156;DHT22;11746;50.876;4.246;2023-12-22T06:55:41;9.40;99.90
23156;DHT22;11746;50.876;4.246;2023-12-22T06:58:06;9.30;99.90
23156;DHT22;11746;50.876;4.246;2023-12-22T07:00:32;9.30;99.90
23156;DHT22;11746;50.876;4.246;2023-12-22T07:02:58;9.30;99.90
23156;DHT22;11746;50.876;4.246;2023-12-22T07:07:51;9.30;99.90
23156;DHT22;11746;50.876;4.246;2023-12-22T07:10:21;9.30;99.90
23156;DHT22;11746;50.876;4.246;2023-12-22T07:12:47;9.30;99.90
23156;DHT22;11746;50.876;4.246;2023-12-22T07:15:12;9.40;99.90
23156;DHT22;11746;50.876;4.246;2023-12-22T07:17:41;9.40;99.90
23156;DHT22;11746;50.876;4.246;2023-12-22T07:20:06;9.50;99.90
23156;DHT22;11746;50.876;4.246;2023-12-22T07:22:34;9.40;99.90
23156;DHT22;11746;50.876;4.246;2023-12-22T07:25:00;9.50;99.90
23156;DHT22;11746;50.876;4.246;2023-12-22T07:27:28;9.50;99.90
23156;DHT22;11746;50.876;4.246;2023-12-22T07:29:56;9.50;99.90
23156;DHT22;11746;50.876;4.246;2023-12-22T07:32:22;9.50;99.90
23156;DHT22;11746;50.876;4.246;2023-12-22T07:34:49;9.60;99.90
23156;DHT22;11746;50.876;4.246;2023-12-22T07:37:15;9.60;99.90
23156;DHT22;11746;50.876;4.246;2023-12-22T07:39:40;9.60;99.90
23156;DHT22;11746;50.876;4.246;2023-12-22T07:42:07;9.60;99.90
23156;DHT22;11746;50.876;4.246;2023-12-22T07:44:32;9.60;99.90
23156;DHT22;11746;50.876;4.246;2023-12-22T07:46:59;9.60;99.90
23156;DHT22;11746;50.876;4.246;2023-12-22T07:49:25;9.60;99.90
23156;DHT22;11746;50.876;4.246;2023-12-22T07:51:51;9.60;99.90
23156;DHT22;11746;50.876;4.246;2023-12-22T07:54:17;9.60;99.90
23156;DHT22;11746;50.876;4.246;2023-12-22T07:56:46;9.60;99.90
23156;DHT22;11746;50.876;4.246;2023-12-22T07:59:14;9.60;99.90
23156;DHT22;11746;50.876;4.246;2023-12-22T08:01:42;9.60;99.90
23156;DHT22;11746;50.876;4.246;2023-12-22T08:04:10;9.60;99.90
23156;DHT22;11746;50.876;4.246;2023-12-22T08:06:37;9.60;99.90
23156;DHT22;11746;50.876;4.246;2023-12-22T08:09:06;9.50;99.90
23156;DHT22;11746;50.876;4.246;2023-12-22T08:11:31;9.50;99.90
23156;DHT22;11746;50.876;4.246;2023-12-22T08:13:57;9.50;99.90
23156;DHT22;11746;50.876;4.246;2023-12-22T08:16:23;9.50;99.90
23156;DHT22;11746;50.876;4.246;2023-12-22T08:18:50;9.50;99.90
23156;DHT22;11746;50.876;4.246;2023-12-22T08:21:20;9.50;99.90
23156;DHT22;11746;50.876;4.246;2023-12-22T08:23:46;9.60;99.90
23156;DHT22;11746;50.876;4.246;2023-12-22T08:26:14;9.50;99.90
23156;DHT22;11746;50.876;4.246;2023-12-22T08:28:43;9.50;99.90
23156;DHT22;11746;50.876;4.246;2023-12-22T08:31:08;9.60;99.90
23156;DHT22;11746;50.876;4.246;2023-12-22T08:33:34;9.60;99.90
23156;DHT22;11746;50.876;4.246;2023-12-22T08:36:00;9.60;99.90
23156;DHT22;11746;50.876;4.246;2023-12-22T08:38:25;9.60;99.90
23156;DHT22;11746;50.876;4.246;2023-12-22T08:40:53;9.60;99.90
23156;DHT22;11746;50.876;4.246;2023-12-22T08:43:21;9.60;99.90
23156;DHT22;11746;50.876;4.246;2023-12-22T08:45:47;9.60;99.90
23156;DHT22;11746;50.876;4.246;2023-12-22T08:48:12;9.60;99.90
23156;DHT22;11746;50.876;4.246;2023-12-22T08:50:38;9.70;99.90
23156;DHT22;11746;50.876;4.246;2023-12-22T08:53:04;9.70;99.90
23156;DHT22;11746;50.876;4.246;2023-12-22T08:55:32;9.80;99.90
23156;DHT22;11746;50.876;4.246;2023-12-22T08:57:59;9.80;99.90
23156;DHT22;11746;50.876;4.246;2023-12-22T09:00:32;9.80;99.90
23156;DHT22;11746;50.876;4.246;2023-12-22T09:03:02;9.80;99.90
23156;DHT22;11746;50.876;4.246;2023-12-22T09:05:33;9.90;99.90
23156;DHT22;11746;50.876;4.246;2023-12-22T09:07:58;9.90;99.90
23156;DHT22;11746;50.876;4.246;2023-12-22T09:10:24;9.90;99.90
23156;DHT22;11746;50.876;4.246;2023-12-22T09:12:50;9.90;99.90
23156;DHT22;11746;50.876;4.246;2023-12-22T09:15:18;10.00;99.90
23156;DHT22;11746;50.876;4.246;2023-12-22T09:17:44;10.00;99.90
23156;DHT22;11746;50.876;4.246;2023-12-22T09:20:16;10.10;99.90
23156;DHT22;11746;50.876;4.246;2023-12-22T09:22:42;10.10;99.90
23156;DHT22;11746;50.876;4.246;2023-12-22T09:25:08;10.20;99.90
23156;DHT22;11746;50.876;4.246;2023-12-22T09:27:34;10.30;99.90
23156;DHT22;11746;50.876;4.246;2023-12-22T09:30:02;10.30;99.90
23156;DHT22;11746;50.876;4.246;2023-12-22T09:32:30;10.30;99.90
23156;DHT22;11746;50.876;4.246;2023-12-22T09:34:55;10.30;99.90
23156;DHT22;11746;50.876;4.246;2023-12-22T09:37:24;10.30;99.90
23156;DHT22;11746;50.876;4.246;2023-12-22T09:39:52;10.30;99.90
23156;DHT22;11746;50.876;4.246;2023-12-22T09:42:21;10.30;99.90
23156;DHT22;11746;50.876;4.246;2023-12-22T09:44:55;10.40;99.90
23156;DHT22;11746;50.876;4.246;2023-12-22T09:47:22;10.40;99.90
23156;DHT22;11746;50.876;4.246;2023-12-22T09:49:52;10.40;99.90
23156;DHT22;11746;50.876;4.246;2023-12-22T09:52:18;10.40;99.90
23156;DHT22;11746;50.876;4.246;2023-12-22T09:54:45;10.30;99.90
23156;DHT22;11746;50.876;4.246;2023-12-22T09:57:12;10.30;99.90
23156;DHT22;11746;50.876;4.246;2023-12-22T09:59:40;10.30;99.90
23156;DHT22;11746;50.876;4.246;2023-12-22T10:02:09;10.30;99.90
23156;DHT22;11746;50.876;4.246;2023-12-22T10:04:34;10.30;99.90
23156;DHT22;11746;50.876;4.246;2023-12-22T10:07:01;10.40;99.90
23156;DHT22;11746;50.876;4.246;2023-12-22T10:09:29;10.40;99.90
23156;DHT22;11746;50.876;4.246;2023-12-22T10:12:01;10.40;99.90
23156;DHT22;11746;50.876;4.246;2023-12-22T10:14:27;10.50;99.90
23156;DHT22;11746;50.876;4.246;2023-12-22T10:16:53;10.50;99.90
23156;DHT22;11746;50.876;4.246;2023-12-22T10:19:23;10.50;99.90
23156;DHT22;11746;50.876;4.246;2023-12-22T10:21:49;10.50;99.90
23156;DHT22;11746;50.876;4.246;2023-12-22T10:24:41;10.50;99.90
23156;DHT22;11746;50.876;4.246;2023-12-22T10:27:10;10.40;99.90
23156;DHT22;11746;50.876;4.246;2023-12-22T10:29:36;10.40;99.90
23156;DHT22;11746;50.876;4.246;2023-12-22T10:32:04;10.40;99.90
23156;DHT22;11746;50.876;4.246;2023-12-22T10:34:30;10.30;99.90
23156;DHT22;11746;50.876;4.246;2023-12-22T10:36:57;10.40;99.90
23156;DHT22;11746;50.876;4.246;2023-12-22T10:39:22;10.30;99.90
23156;DHT22;11746;50.876;4.246;2023-12-22T10:41:50;10.40;99.90
23156;DHT22;11746;50.876;4.246;2023-12-22T10:44:20;10.40;99.90
23156;DHT22;11746;50.876;4.246;2023-12-22T10:46:51;10.40;99.90
23156;DHT22;11746;50.876;4.246;2023-12-22T10:49:18;10.40;99.90
23156;DHT22;11746;50.876;4.246;2023-12-22T10:51:44;10.30;99.90
23156;DHT22;11746;50.876;4.246;2023-12-22T10:54:11;10.30;99.90
23156;DHT22;11746;50.876;4.246;2023-12-22T10:56:37;10.20;99.90
23156;DHT22;11746;50.876;4.246;2023-12-22T10:59:04;10.20;99.90
23156;DHT22;11746;50.876;4.246;2023-12-22T11:01:32;10.20;99.90
23156;DHT22;11746;50.876;4.246;2023-12-22T11:04:05;10.20;99.90
23156;DHT22;11746;50.876;4.246;2023-12-22T11:06:37;10.20;99.90
23156;DHT22;11746;50.876;4.246;2023-12-22T11:09:09;10.20;99.90
23156;DHT22;11746;50.876;4.246;2023-12-22T11:11:39;10.20;99.90
23156;DHT22;11746;50.876;4.246;2023-12-22T11:14:06;10.20;99.90
23156;DHT22;11746;50.876;4.246;2023-12-22T11:16:35;10.30;99.90
23156;DHT22;11746;50.876;4.246;2023-12-22T11:19:04;10.20;99.90
23156;DHT22;11746;50.876;4.246;2023-12-22T11:21:30;10.30;99.90
23156;DHT22;11746;50.876;4.246;2023-12-22T11:23:57;10.30;99.90
23156;DHT22;11746;50.876;4.246;2023-12-22T11:26:25;10.30;99.90
23156;DHT22;11746;50.876;4.246;2023-12-22T11:28:52;10.40;99.90
23156;DHT22;11746;50.876;4.246;2023-12-22T11:31:20;10.40;99.90
23156;DHT22;11746;50.876;4.246;2023-12-22T11:33:46;10.50;99.90
23156;DHT22;11746;50.876;4.246;2023-12-22T11:36:14;10.50;99.90
23156;DHT22;11746;50.876;4.246;2023-12-22T11:38:41;10.50;99.90
23156;DHT22;11746;50.876;4.246;2023-12-22T11:41:10;10.50;99.90
23156;DHT22;11746;50.876;4.246;2023-12-22T11:43:40;10.60;99.90
23156;DHT22;11746;50.876;4.246;2023-12-22T11:46:06;10.60;99.90
23156;DHT22;11746;50.876;4.246;2023-12-22T11:48:34;10.70;99.90
23156;DHT22;11746;50.876;4.246;2023-12-22T11:51:03;10.70;99.90
23156;DHT22;11746;50.876;4.246;2023-12-22T11:53:42;10.70;99.90
23156;DHT22;11746;50.876;4.246;2023-12-22T11:56:09;10.70;99.90
23156;DHT22;11746;50.876;4.246;2023-12-22T12:01:06;10.80;99.90
23156;DHT22;11746;50.876;4.246;2023-12-22T12:03:32;10.90;99.90
23156;DHT22;11746;50.876;4.246;2023-12-22T12:08:39;10.90;99.90
23156;DHT22;11746;50.876;4.246;2023-12-22T12:11:05;11.00;99.90
23156;DHT22;11746;50.876;4.246;2023-12-22T12:13:33;11.00;99.90
23156;DHT22;11746;50.876;4.246;2023-12-22T12:16:00;11.10;99.90
23156;DHT22;11746;50.876;4.246;2023-12-22T12:18:31;11.10;99.90
23156;DHT22;11746;50.876;4.246;2023-12-22T12:20:59;11.10;99.90
23156;DHT22;11746;50.876;4.246;2023-12-22T12:23:30;11.10;99.90
23156;DHT22;11746;50.876;4.246;2023-12-22T12:25:58;11.10;99.90
23156;DHT22;11746;50.876;4.246;2023-12-22T12:28:31;11.20;99.90
23156;DHT22;11746;50.876;4.246;2023-12-22T12:31:04;11.10;99.90
23156;DHT22;11746;50.876;4.246;2023-12-22T12:33:30;11.10;99.90
23156;DHT22;11746;50.876;4.246;2023-12-22T12:35:57;11.10;99.90
23156;DHT22;11746;50.876;4.246;2023-12-22T12:41:14;11.10;99.90
23156;DHT22;11746;50.876;4.246;2023-12-22T12:43:44;11.10;99.90
23156;DHT22;11746;50.876;4.246;2023-12-22T12:46:10;11.10;99.90
23156;DHT22;11746;50.876;4.246;2023-12-22T12:48:36;11.00;99.90
23156;DHT22;11746;50.876;4.246;2023-12-22T12:51:05;11.00;99.90
23156;DHT22;11746;50.876;4.246;2023-12-22T12:53:36;10.90;99.90
23156;DHT22;11746;50.876;4.246;2023-12-22T12:56:03;10.80;99.90
23156;DHT22;11746;50.876;4.246;2023-12-22T12:58:32;10.80;99.90
23156;DHT22;11746;50.876;4.246;2023-12-22T13:01:09;10.80;99.90
23156;DHT22;11746;50.876;4.246;2023-12-22T13:03:56;10.90;99.90
23156;DHT22;11746;50.876;4.246;2023-12-22T13:06:23;10.90;99.90
23156;DHT22;11746;50.876;4.246;2023-12-22T13:08:49;10.90;99.90
23156;DHT22;11746;50.876;4.246;2023-12-22T13:11:26;10.90;99.90
23156;DHT22;11746;50.876;4.246;2023-12-22T13:13:55;10.90;99.90
23156;DHT22;11746;50.876;4.246;2023-12-22T13:16:24;10.90;99.90
23156;DHT22;11746;50.876;4.246;2023-12-22T13:18:56;10.90;99.90
23156;DHT22;11746;50.876;4.246;2023-12-22T13:21:25;11.00;99.90
23156;DHT22;11746;50.876;4.246;2023-12-22T13:24:14;11.00;99.90
23156;DHT22;11746;50.876;4.246;2023-12-22T13:26:45;11.00;99.90
23156;DHT22;11746;50.876;4.246;2023-12-22T13:29:12;11.10;99.90
23156;DHT22;11746;50.876;4.246;2023-12-22T13:31:41;11.00;99.90
23156;DHT22;11746;50.876;4.246;2023-12-22T13:34:12;11.10;99.90
23156;DHT22;11746;50.876;4.246;2023-12-22T13:36:38;11.20;99.90
23156;DHT22;11746;50.876;4.246;2023-12-22T13:39:06;11.20;99.90
23156;DHT22;11746;50.876;4.246;2023-12-22T13:41:40;11.20;99.90
23156;DHT22;11746;50.876;4.246;2023-12-22T13:44:11;11.20;99.90
23156;DHT22;11746;50.876;4.246;2023-12-22T13:46:40;11.10;99.90
23156;DHT22;11746;50.876;4.246;2023-12-22T13:49:13;11.10;99.90
23156;DHT22;11746;50.876;4.246;2023-12-22T13:51:44;11.10;99.90
23156;DHT22;11746;50.876;4.246;2023-12-22T13:54:11;11.10;99.90
23156;DHT22;11746;50.876;4.246;2023-12-22T13:56:37;11.00;99.90
23156;DHT22;11746;50.876;4.246;2023-12-22T13:59:07;11.00;99.90
23156;DHT22;11746;50.876;4.246;2023-12-22T14:01:33;11.00;99.90
23156;DHT22;11746;50.876;4.246;2023-12-22T14:03:59;11.00;99.90
23156;DHT22;11746;50.876;4.246;2023-12-22T14:06:28;10.90;99.90
23156;DHT22;11746;50.876;4.246;2023-12-22T14:08:54;10.90;99.90
23156;DHT22;11746;50.876;4.246;2023-12-22T14:11:22;11.00;99.90
23156;DHT22;11746;50.876;4.246;2023-12-22T14:13:48;11.00;99.90
23156;DHT22;11746;50.876;4.246;2023-12-22T14:16:17;11.00;99.90
23156;DHT22;11746;50.876;4.246;2023-12-22T14:18:44;11.00;99.90
23156;DHT22;11746;50.876;4.246;2023-12-22T14:21:11;11.00;99.90
23156;DHT22;11746;50.876;4.246;2023-12-22T14:23:41;11.10;99.90
23156;DHT22;11746;50.876;4.246;2023-12-22T14:26:07;11.00;99.90
23156;DHT22;11746;50.876;4.246;2023-12-22T14:28:32;11.10;99.90
23156;DHT22;11746;50.876;4.246;2023-12-22T14:31:00;11.10;99.90
23156;DHT22;11746;50.876;4.246;2023-12-22T14:33:26;11.10;99.90
23156;DHT22;11746;50.876;4.246;2023-12-22T14:35:52;11.10;99.90
23156;DHT22;11746;50.876;4.246;2023-12-22T14:38:20;11.10;99.90
23156;DHT22;11746;50.876;4.246;2023-12-22T14:40:48;11.20;99.90
23156;DHT22;11746;50.876;4.246;2023-12-22T14:43:15;11.20;99.90
23156;DHT22;11746;50.876;4.246;2023-12-22T14:45:44;11.20;99.90
23156;DHT22;11746;50.876;4.246;2023-12-22T14:48:09;11.20;99.90
23156;DHT22;11746;50.876;4.246;2023-12-22T14:50:35;11.20;99.90
23156;DHT22;11746;50.876;4.246;2023-12-22T14:53:00;11.20;99.90
23156;DHT22;11746;50.876;4.246;2023-12-22T14:55:26;11.20;99.90
23156;DHT22;11746;50.876;4.246;2023-12-22T14:57:55;11.20;99.90
23156;DHT22;11746;50.876;4.246;2023-12-22T15:00:21;11.20;99.90
23156;DHT22;11746;50.876;4.246;2023-12-22T15:02:47;11.30;99.90
23156;DHT22;11746;50.876;4.246;2023-12-22T15:05:15;11.30;99.90
23156;DHT22;11746;50.876;4.246;2023-12-22T15:07:40;11.20;99.90
23156;DHT22;11746;50.876;4.246;2023-12-22T15:10:06;11.30;99.90
23156;DHT22;11746;50.876;4.246;2023-12-22T15:12:33;11.30;99.90
23156;DHT22;11746;50.876;4.246;2023-12-22T15:15:01;11.30;99.90
23156;DHT22;11746;50.876;4.246;2023-12-22T15:17:30;11.30;99.90
23156;DHT22;11746;50.876;4.246;2023-12-22T15:19:58;11.30;99.90
23156;DHT22;11746;50.876;4.246;2023-12-22T15:22:28;11.30;99.90
23156;DHT22;11746;50.876;4.246;2023-12-22T15:24:54;11.30;99.90
23156;DHT22;11746;50.876;4.246;2023-12-22T15:27:20;11.30;99.90
23156;DHT22;11746;50.876;4.246;2023-12-22T15:29:45;11.40;99.90
23156;DHT22;11746;50.876;4.246;2023-12-22T15:32:12;11.40;99.90
23156;DHT22;11746;50.876;4.246;2023-12-22T15:34:40;11.40;99.90
23156;DHT22;11746;50.876;4.246;2023-12-22T15:37:08;11.30;99.90
23156;DHT22;11746;50.876;4.246;2023-12-22T15:39:36;11.30;99.90
23156;DHT22;11746;50.876;4.246;2023-12-22T15:42:06;11.40;99.90
23156;DHT22;11746;50.876;4.246;2023-12-22T15:44:32;11.40;99.90
23156;DHT22;11746;50.876;4.246;2023-12-22T15:46:59;11.40;99.90
23156;DHT22;11746;50.876;4.246;2023-12-22T15:49:27;11.40;99.90
23156;DHT22;11746;50.876;4.246;2023-12-22T15:51:54;11.40;99.90